Time;durP1;ratioP1;P1;durP2;ratioP2;P2;SDS_P1;SDS_P2;PMS_P1;PMS_P2;Temp;Humidity;BMP_temperature;BMP_pressure;BME280_temperature;BME280_humidity;BME280_pressure;Samples;Min_cycle;Max_cycle;Signal;HPM_P1;HPM_P2
2022/11/15 00:00:52;;;;;;;6.85;3.72;;;12.50;89.10;;;;;;5000991;28;20052;-80
2022/11/15 00:03:20;;;;;;;6.70;3.80;;;12.60;89.20;;;;;;5004631;28;20879;-80
2022/11/15 00:05:47;;;;;;;6.70;3.97;;;12.60;89.40;;;;;;5054737;28;20051;-81
2022/11/15 00:08:12;;;;;;;7.40;3.80;;;12.60;89.40;;;;;;5021594;28;20367;-80
2022/11/15 00:10:38;;;;;;;5.87;3.80;;;12.60;89.60;;;;;;5002092;28;20493;-80
2022/11/15 00:13:11;;;;;;;5.27;3.43;;;12.70;89.60;;;;;;5009440;28;20311;-80
2022/11/15 00:15:37;;;;;;;7.05;3.65;;;12.70;90.10;;;;;;5038145;28;20026;-80
2022/11/15 00:18:12;;;;;;;5.90;3.55;;;12.70;89.80;;;;;;5003504;28;20662;-80
2022/11/15 00:20:38;;;;;;;5.97;3.23;;;12.70;90.00;;;;;;5029430;28;20358;-80
2022/11/15 00:23:04;;;;;;;8.52;3.67;;;12.70;89.80;;;;;;5025702;28;20132;-80
2022/11/15 00:25:30;;;;;;;6.63;3.60;;;12.80;89.80;;;;;;5009670;28;20048;-80
2022/11/15 00:27:57;;;;;;;7.15;3.95;;;12.80;89.90;;;;;;5052481;28;20462;-80
2022/11/15 00:30:23;;;;;;;6.00;3.43;;;12.80;90.00;;;;;;4991780;28;20370;-80
2022/11/15 00:32:49;;;;;;;6.00;3.28;;;12.80;90.10;;;;;;5014703;28;20727;-80
2022/11/15 00:35:15;;;;;;;5.45;3.35;;;12.80;90.10;;;;;;4997460;28;20037;-80
2022/11/15 00:37:41;;;;;;;6.57;3.38;;;12.80;90.10;;;;;;5019114;28;20122;-80
2022/11/15 00:40:07;;;;;;;6.23;3.27;;;12.90;90.20;;;;;;5000246;28;20032;-80
2022/11/15 00:42:33;;;;;;;6.28;3.25;;;12.80;90.20;;;;;;5039284;28;20025;-80
2022/11/15 00:44:59;;;;;;;6.33;3.90;;;12.80;90.20;;;;;;5008107;28;20037;-80
2022/11/15 00:47:24;;;;;;;7.35;4.20;;;12.90;90.40;;;;;;5013402;28;20401;-80
2022/11/15 00:49:50;;;;;;;8.77;4.30;;;12.90;90.40;;;;;;5017517;28;20325;-80
2022/11/15 00:52:15;;;;;;;8.95;4.80;;;12.90;90.50;;;;;;5032710;28;20031;-80
2022/11/15 00:54:41;;;;;;;7.63;4.00;;;12.90;90.60;;;;;;5032099;28;20045;-80
2022/11/15 00:57:07;;;;;;;6.27;3.77;;;13.00;90.60;;;;;;5004268;28;20075;-80
2022/11/15 00:59:32;;;;;;;7.43;3.72;;;13.00;90.70;;;;;;5012454;28;22323;-80
2022/11/15 01:01:58;;;;;;;7.03;3.90;;;13.00;90.70;;;;;;5025068;28;20565;-80
2022/11/15 01:04:23;;;;;;;6.05;3.60;;;13.00;90.80;;;;;;5001845;28;20025;-79
2022/11/15 01:06:49;;;;;;;6.87;3.43;;;13.10;90.80;;;;;;5023475;28;20717;-79
2022/11/15 01:09:15;;;;;;;6.80;3.53;;;13.10;90.80;;;;;;5022119;28;20274;-79
2022/11/15 01:11:40;;;;;;;6.87;3.47;;;13.10;90.80;;;;;;4997666;28;20502;-79
2022/11/15 01:14:06;;;;;;;5.03;3.43;;;13.20;90.90;;;;;;5024181;28;20377;-79
2022/11/15 01:16:33;;;;;;;7.07;3.88;;;13.10;90.90;;;;;;4999266;28;20037;-79
2022/11/15 01:18:59;;;;;;;5.90;3.70;;;13.20;90.90;;;;;;5017421;28;20518;-80
2022/11/15 01:21:25;;;;;;;5.88;3.42;;;13.20;91.00;;;;;;5000821;28;20041;-79
2022/11/15 01:23:55;;;;;;;6.47;3.67;;;13.20;91.00;;;;;;5035937;28;20344;-79
2022/11/15 01:26:21;;;;;;;6.22;4.00;;;13.20;91.20;;;;;;5031131;28;20059;-80
2022/11/15 01:28:47;;;;;;;6.03;3.97;;;13.30;91.20;;;;;;5042126;28;20188;-80
2022/11/15 01:31:16;;;;;;;6.73;3.90;;;13.30;91.40;;;;;;5010761;28;20033;-79
2022/11/15 01:33:42;;;;;;;6.30;3.65;;;13.30;91.60;;;;;;5019150;28;20545;-80
2022/11/15 01:36:12;;;;;;;6.45;3.72;;;13.40;91.50;;;;;;5033073;28;20028;-79
2022/11/15 01:38:38;;;;;;;6.78;3.60;;;13.40;91.70;;;;;;5014029;28;20688;-79
2022/11/15 01:41:04;;;;;;;7.33;3.93;;;13.50;91.60;;;;;;5026198;28;20036;-80
2022/11/15 01:43:35;;;;;;;8.52;4.40;;;13.50;91.80;;;;;;5006128;28;20077;-80
2022/11/15 01:46:33;;;;;;;6.77;4.03;;;13.50;91.90;;;;;;5006993;28;20103;-79
2022/11/15 01:49:05;;;;;;;5.68;3.40;;;13.60;92.50;;;;;;5008762;28;20029;-80
2022/11/15 01:51:33;;;;;;;6.55;3.50;;;13.70;92.30;;;;;;5017369;28;20060;-80
2022/11/15 01:54:10;;;;;;;5.50;3.60;;;13.70;91.90;;;;;;5048198;28;20084;-81
2022/11/15 01:56:48;;;;;;;6.53;3.70;;;13.70;92.00;;;;;;5016928;28;20301;-80
2022/11/15 01:59:14;;;;;;;5.40;3.57;;;13.80;92.00;;;;;;5029133;28;20025;-80
2022/11/15 02:01:41;;;;;;;6.60;3.90;;;13.80;91.70;;;;;;5003883;28;20138;-80
2022/11/15 02:04:23;;;;;;;6.15;3.80;;;13.80;91.80;;;;;;5030506;28;20060;-80
2022/11/15 02:06:49;;;;;;;7.63;3.75;;;13.80;92.10;;;;;;4989635;28;20301;-80
2022/11/15 02:09:16;;;;;;;5.83;3.57;;;13.80;91.80;;;;;;5026407;28;20047;-80
2022/11/15 02:11:43;;;;;;;5.90;3.80;;;13.90;91.90;;;;;;5042900;28;20709;-80
2022/11/15 02:14:11;;;;;;;6.78;3.85;;;13.90;91.90;;;;;;5051949;28;20036;-80
2022/11/15 02:16:52;;;;;;;7.70;3.90;;;13.90;92.20;;;;;;5023592;28;20273;-80
2022/11/15 02:19:17;;;;;;;6.73;3.60;;;13.90;92.30;;;;;;5026385;28;20025;-80
2022/11/15 02:21:55;;;;;;;6.82;3.95;;;13.90;92.00;;;;;;5012222;28;20044;-80
2022/11/15 02:24:46;;;;;;;6.45;4.13;;;14.00;92.30;;;;;;5021312;28;20496;-80
2022/11/15 02:27:12;;;;;;;7.47;3.77;;;14.00;92.50;;;;;;5018372;28;20040;-80
2022/11/15 02:29:53;;;;;;;5.47;3.63;;;14.00;92.00;;;;;;5002438;28;20626;-79
2022/11/15 02:32:27;;;;;;;7.00;3.80;;;14.00;92.40;;;;;;5009631;28;20612;-80
2022/11/15 02:35:02;;;;;;;6.80;3.90;;;14.00;92.20;;;;;;5012613;28;20036;-80
2022/11/15 02:37:46;;;;;;;6.97;3.55;;;14.00;92.40;;;;;;5026957;28;20877;-80
2022/11/15 02:40:49;;;;;;;5.53;3.55;;;14.00;92.30;;;;;;5003820;28;20021;-80
2022/11/15 02:47:12;;;;;;;5.57;3.33;;;14.10;92.30;;;;;;5029004;28;20496;-80
2022/11/15 02:49:13;;;;;;;5.25;3.05;;;14.00;92.20;;;;;;5010818;28;20073;-80
2022/11/15 02:51:39;;;;;;;4.53;2.75;;;14.10;92.10;;;;;;5028734;28;20231;-80
2022/11/15 02:54:05;;;;;;;7.00;3.25;;;14.00;92.10;;;;;;5004931;28;20452;-80
2022/11/15 02:56:31;;;;;;;5.73;3.10;;;14.00;92.10;;;;;;5029609;28;20743;-80
2022/11/15 02:59:13;;;;;;;4.95;3.00;;;14.10;92.10;;;;;;5039083;28;20419;-80
2022/11/15 03:02:04;;;;;;;5.20;2.85;;;14.00;92.50;;;;;;5018002;28;20048;-79
2022/11/15 03:04:55;;;;;;;5.30;2.97;;;14.00;92.60;;;;;;5003263;28;20124;-80
2022/11/15 03:07:34;;;;;;;5.03;3.07;;;14.00;92.50;;;;;;5048053;28;20029;-80
2022/11/15 03:10:17;;;;;;;5.40;2.67;;;14.00;92.40;;;;;;5024171;28;20029;-80
2022/11/15 03:13:06;;;;;;;4.82;2.75;;;14.00;92.50;;;;;;5050832;28;20241;-80
2022/11/15 03:15:45;;;;;;;5.93;2.80;;;14.00;92.30;;;;;;5011028;28;20201;-80
2022/11/15 03:18:21;;;;;;;4.38;2.67;;;14.00;92.40;;;;;;5018866;28;20026;-80
2022/11/15 03:20:48;;;;;;;6.07;3.00;;;14.00;92.40;;;;;;5028361;28;20029;-80
2022/11/15 03:23:16;;;;;;;5.55;2.67;;;14.00;92.20;;;;;;5030696;28;20191;-80
2022/11/15 03:25:47;;;;;;;5.38;2.95;;;14.00;92.30;;;;;;5015487;28;20540;-80
2022/11/15 03:28:19;;;;;;;5.65;2.97;;;14.00;92.40;;;;;;5029163;28;20037;-80
2022/11/15 03:30:47;;;;;;;4.40;2.90;;;14.00;92.50;;;;;;5061841;28;20548;-80
2022/11/15 03:33:13;;;;;;;4.33;2.73;;;14.00;92.40;;;;;;5038310;28;20032;-80
2022/11/15 03:35:43;;;;;;;4.90;2.95;;;14.00;92.40;;;;;;5010382;28;20207;-80
2022/11/15 03:38:35;;;;;;;5.50;2.83;;;14.00;92.50;;;;;;5019894;28;20059;-80
2022/11/15 03:41:05;;;;;;;5.85;2.90;;;14.00;92.90;;;;;;5004642;28;20179;-79
2022/11/15 03:43:47;;;;;;;4.38;2.75;;;14.00;92.60;;;;;;5046046;28;20508;-80
2022/11/15 03:46:36;;;;;;;5.23;2.53;;;14.00;92.60;;;;;;5035985;28;20025;-79
2022/11/15 03:49:19;;;;;;;4.78;2.40;;;14.00;93.30;;;;;;5038541;28;20116;-80
2022/11/15 03:51:45;;;;;;;4.82;2.60;;;14.10;92.60;;;;;;5013242;28;20470;-80
2022/11/15 03:54:12;;;;;;;5.03;3.00;;;14.10;92.50;;;;;;5005258;28;20044;-80
2022/11/15 03:56:38;;;;;;;4.90;2.80;;;14.10;92.70;;;;;;5022017;28;20021;-80
2022/11/15 03:59:04;;;;;;;4.38;2.67;;;14.00;92.60;;;;;;5019501;28;20032;-80
2022/11/15 04:01:29;;;;;;;3.90;2.70;;;14.10;92.70;;;;;;5007648;28;20033;-79
2022/11/15 04:03:55;;;;;;;4.65;2.85;;;14.10;92.70;;;;;;5005172;28;20094;-80
2022/11/15 04:06:21;;;;;;;5.67;2.90;;;14.10;92.70;;;;;;4988313;28;20026;-79
2022/11/15 04:08:46;;;;;;;5.53;2.65;;;14.10;92.70;;;;;;5023806;28;20477;-79
2022/11/15 04:11:12;;;;;;;5.00;2.77;;;14.00;92.60;;;;;;5010913;28;20029;-80
2022/11/15 04:13:37;;;;;;;4.07;2.22;;;14.10;92.60;;;;;;5042610;28;20572;-80
2022/11/15 04:16:03;;;;;;;5.47;2.53;;;14.10;92.60;;;;;;5011147;28;20029;-79
2022/11/15 04:18:29;;;;;;;4.63;2.22;;;14.10;92.60;;;;;;5020788;28;20025;-80
2022/11/15 04:26:23;;;;;;;4.35;2.15;;;14.10;92.50;;;;;;5040936;28;20199;-79
2022/11/15 04:31:33;;;;;;;3.92;2.00;;;14.00;92.40;;;;;;5019779;28;20036;-79
2022/11/15 04:33:59;;;;;;;4.32;2.38;;;14.00;92.40;;;;;;5012612;28;20037;-79
2022/11/15 04:39:09;;;;;;;3.65;2.05;;;14.10;92.40;;;;;;5003433;28;20028;-79
2022/11/15 04:41:35;;;;;;;4.00;1.90;;;14.10;92.40;;;;;;5013794;28;20087;-79
2022/11/15 04:44:00;;;;;;;3.30;2.00;;;14.00;92.30;;;;;;5016093;28;20825;-79
2022/11/15 04:46:27;;;;;;;3.70;1.88;;;14.00;92.30;;;;;;5052409;28;20112;-80
2022/11/15 04:48:53;;;;;;;4.07;2.10;;;14.00;92.30;;;;;;5025492;28;20112;-80
2022/11/15 04:51:19;;;;;;;3.95;2.00;;;14.00;92.30;;;;;;5015323;28;20543;-80
2022/11/15 04:53:44;;;;;;;3.53;2.08;;;14.00;92.30;;;;;;5000812;28;20050;-80
2022/11/15 04:56:11;;;;;;;4.10;2.20;;;14.00;92.20;;;;;;5054044;28;20108;-80
2022/11/15 04:58:36;;;;;;;3.65;2.03;;;14.00;92.20;;;;;;5006528;28;20112;-80
2022/11/15 05:01:10;;;;;;;3.70;1.98;;;13.90;92.10;;;;;;5026680;28;20119;-80
2022/11/15 05:06:20;;;;;;;2.70;1.83;;;13.90;92.10;;;;;;5036277;28;20013;-80
2022/11/15 05:08:46;;;;;;;3.70;1.90;;;13.80;92.00;;;;;;5006556;28;22967;-80
2022/11/15 05:11:12;;;;;;;4.30;1.73;;;13.90;92.00;;;;;;5027208;28;20705;-79
2022/11/15 05:13:37;;;;;;;3.17;1.80;;;13.80;92.00;;;;;;4990900;28;20037;-79
2022/11/15 05:16:03;;;;;;;3.30;1.80;;;13.80;92.00;;;;;;5030703;28;20269;-80
2022/11/15 05:18:29;;;;;;;2.65;1.63;;;13.80;92.10;;;;;;5033173;28;20417;-80
2022/11/15 05:20:54;;;;;;;3.20;1.70;;;13.80;92.10;;;;;;5016923;28;20428;-80
2022/11/15 05:23:20;;;;;;;3.05;1.70;;;13.80;92.10;;;;;;5020890;28;20241;-79
2022/11/15 05:25:46;;;;;;;2.90;1.70;;;13.80;92.10;;;;;;5033120;28;21193;-80
2022/11/15 05:28:12;;;;;;;3.75;1.75;;;13.80;92.10;;;;;;5013190;28;20021;-80
2022/11/15 05:30:37;;;;;;;2.70;1.80;;;13.70;92.10;;;;;;5040190;28;20086;-80
2022/11/15 05:33:03;;;;;;;3.07;1.50;;;13.70;92.10;;;;;;5027389;28;20028;-79
2022/11/15 05:35:41;;;;;;;2.50;1.57;;;13.70;92.10;;;;;;5026648;28;20032;-80
2022/11/15 05:38:07;;;;;;;2.88;1.40;;;13.70;92.10;;;;;;5017949;28;20032;-80
2022/11/15 05:40:34;;;;;;;3.58;1.55;;;13.70;92.00;;;;;;5008938;28;20052;-80
2022/11/15 05:43:01;;;;;;;2.85;1.60;;;13.70;92.00;;;;;;5055757;28;20025;-79
2022/11/15 05:45:27;;;;;;;2.90;1.60;;;13.70;92.00;;;;;;5003134;28;20356;-79
2022/11/15 05:47:56;;;;;;;2.87;1.43;;;13.60;91.90;;;;;;5014075;28;20025;-80
2022/11/15 05:50:22;;;;;;;2.35;1.33;;;13.60;91.90;;;;;;5023868;28;20134;-80
2022/11/15 05:52:48;;;;;;;3.25;1.60;;;13.60;91.90;;;;;;5021117;28;20116;-79
2022/11/15 05:55:14;;;;;;;2.47;1.45;;;13.60;91.90;;;;;;5049203;28;20055;-79
2022/11/15 05:57:40;;;;;;;2.50;1.30;;;13.50;91.80;;;;;;5000915;28;20608;-79
2022/11/15 06:00:09;;;;;;;2.70;1.50;;;13.50;91.80;;;;;;5014028;28;20051;-79
2022/11/15 06:02:34;;;;;;;4.07;1.67;;;13.50;91.80;;;;;;5015317;28;20060;-80
2022/11/15 06:05:00;;;;;;;2.90;1.63;;;13.40;91.80;;;;;;5011673;28;20029;-80
2022/11/15 06:07:26;;;;;;;1.92;1.25;;;13.40;91.80;;;;;;5011004;28;20130;-79
2022/11/15 06:09:51;;;;;;;3.87;1.47;;;13.30;91.70;;;;;;5031833;28;20029;-80
2022/11/15 06:12:17;;;;;;;2.63;1.42;;;13.30;91.70;;;;;;4987951;28;20030;-79
2022/11/15 06:14:42;;;;;;;2.23;1.40;;;13.30;91.80;;;;;;5022781;28;20387;-79
2022/11/15 06:17:08;;;;;;;1.83;1.20;;;13.20;91.70;;;;;;5032131;28;20082;-79
2022/11/15 06:19:34;;;;;;;2.58;1.52;;;13.20;91.70;;;;;;5045225;28;20078;-80
2022/11/15 06:21:59;;;;;;;4.03;1.73;;;13.20;91.70;;;;;;5032369;28;20065;-80
2022/11/15 06:24:25;;;;;;;3.50;1.33;;;13.10;91.80;;;;;;5027094;28;20205;-80
2022/11/15 06:26:51;;;;;;;3.00;1.45;;;13.10;92.10;;;;;;5004799;28;20842;-79
2022/11/15 06:29:17;;;;;;;2.07;1.30;;;13.10;91.80;;;;;;5023224;28;20497;-80
2022/11/15 06:31:42;;;;;;;2.78;1.52;;;13.10;92.00;;;;;;5013736;28;20025;-80
2022/11/15 06:34:08;;;;;;;2.87;1.40;;;13.10;92.10;;;;;;5025767;28;20072;-79
2022/11/15 06:36:35;;;;;;;2.80;1.30;;;13.00;92.10;;;;;;5025348;28;20708;-80
2022/11/15 06:39:01;;;;;;;2.58;1.20;;;13.10;92.20;;;;;;5013110;28;20401;-80
2022/11/15 06:41:27;;;;;;;2.78;1.55;;;13.00;92.10;;;;;;5025194;28;20386;-79
2022/11/15 06:43:53;;;;;;;3.87;1.43;;;13.10;92.10;;;;;;5002913;28;20127;-80
2022/11/15 06:46:18;;;;;;;1.93;1.50;;;13.00;92.00;;;;;;5038332;28;20272;-80
2022/11/15 06:48:44;;;;;;;1.70;1.07;;;13.00;91.90;;;;;;5019406;28;20032;-80
2022/11/15 06:51:10;;;;;;;2.90;1.40;;;13.00;91.80;;;;;;5025450;28;20475;-79
2022/11/15 06:53:36;;;;;;;2.20;1.30;;;12.90;91.60;;;;;;5030637;28;20044;-79
2022/11/15 06:56:04;;;;;;;3.13;1.30;;;12.90;91.60;;;;;;5012747;28;20032;-79
2022/11/15 06:58:30;;;;;;;2.42;1.23;;;12.80;91.50;;;;;;5008728;28;20120;-80
2022/11/15 07:01:07;;;;;;;1.80;1.25;;;12.80;91.50;;;;;;5014669;28;20528;-79
2022/11/15 07:03:37;;;;;;;2.10;1.25;;;12.70;91.50;;;;;;5014463;28;20021;-82
2022/11/15 07:06:03;;;;;;;1.60;1.10;;;12.60;91.50;;;;;;5014300;28;20492;-79
2022/11/15 07:08:29;;;;;;;2.72;1.38;;;12.50;91.40;;;;;;5023021;28;20163;-78
2022/11/15 07:10:59;;;;;;;2.83;1.40;;;12.50;91.40;;;;;;5000520;28;20533;-80
2022/11/15 07:13:26;;;;;;;2.90;1.40;;;12.40;91.50;;;;;;5017164;28;20433;-80
2022/11/15 07:15:53;;;;;;;2.35;1.33;;;12.40;91.50;;;;;;5012060;28;20128;-80
2022/11/15 07:18:18;;;;;;;3.17;1.23;;;12.30;91.50;;;;;;5018748;28;20037;-79
2022/11/15 07:20:44;;;;;;;2.23;1.40;;;12.40;91.60;;;;;;5024803;28;20248;-79
2022/11/15 07:23:10;;;;;;;2.22;1.13;;;12.30;91.60;;;;;;5017454;28;20017;-80
2022/11/15 07:25:35;;;;;;;1.47;1.10;;;12.20;91.70;;;;;;5028955;28;20394;-81
2022/11/15 07:28:01;;;;;;;3.10;1.60;;;12.20;91.80;;;;;;5016689;28;20025;-80
2022/11/15 07:30:27;;;;;;;4.40;1.55;;;12.10;91.70;;;;;;5006059;28;20099;-79
2022/11/15 07:32:55;;;;;;;2.43;1.40;;;12.10;91.90;;;;;;5026773;28;20325;-80
2022/11/15 07:35:20;;;;;;;2.97;1.40;;;12.10;92.00;;;;;;5011129;28;20398;-79
2022/11/15 07:37:57;;;;;;;1.73;1.30;;;12.10;92.00;;;;;;5013160;28;20588;-79
2022/11/15 07:40:23;;;;;;;2.80;1.30;;;12.10;92.20;;;;;;5025641;28;20017;-79
2022/11/15 07:42:55;;;;;;;2.55;1.33;;;12.10;92.20;;;;;;5026800;28;20246;-80
2022/11/15 07:45:22;;;;;;;2.05;1.27;;;12.10;92.20;;;;;;4994464;28;20853;-80
2022/11/15 07:47:49;;;;;;;2.67;1.58;;;12.10;92.20;;;;;;5026041;28;20021;-80
2022/11/15 07:50:16;;;;;;;2.42;1.52;;;12.10;92.30;;;;;;4996902;28;20247;-80
2022/11/15 07:52:41;;;;;;;2.90;1.50;;;12.10;92.30;;;;;;5061960;28;20059;-80
2022/11/15 07:55:07;;;;;;;3.00;1.52;;;12.10;92.30;;;;;;5025636;28;20087;-79
2022/11/15 07:57:33;;;;;;;3.50;1.70;;;12.20;92.40;;;;;;5031575;28;20033;-80
2022/11/15 07:59:59;;;;;;;3.33;1.60;;;12.20;92.50;;;;;;5007140;28;20196;-81
2022/11/15 08:02:24;;;;;;;2.30;1.50;;;12.20;92.50;;;;;;5024369;28;20187;-79
2022/11/15 08:04:50;;;;;;;2.73;1.40;;;12.20;92.50;;;;;;5040501;28;20371;-79
2022/11/15 08:07:16;;;;;;;2.23;1.57;;;12.20;92.50;;;;;;5013767;28;20553;-79
2022/11/15 08:09:41;;;;;;;3.45;1.60;;;12.20;92.50;;;;;;5024219;28;20497;-79
2022/11/15 08:12:07;;;;;;;2.20;1.50;;;12.30;92.60;;;;;;5009653;28;20032;-80
2022/11/15 08:14:33;;;;;;;2.47;1.73;;;12.30;92.60;;;;;;5028693;28;20480;-80
2022/11/15 08:16:58;;;;;;;2.73;1.57;;;12.40;92.70;;;;;;5008532;28;20098;-79
2022/11/15 08:19:24;;;;;;;3.78;1.83;;;12.40;92.70;;;;;;5027345;28;20050;-79
2022/11/15 08:21:49;;;;;;;2.93;1.37;;;12.40;92.80;;;;;;4993660;28;20031;-80
2022/11/15 08:24:15;;;;;;;3.40;1.50;;;12.40;92.80;;;;;;5022160;28;20517;-79
2022/11/15 08:26:41;;;;;;;3.47;1.77;;;12.50;92.80;;;;;;5031473;28;20020;-80
2022/11/15 08:29:08;;;;;;;2.77;1.40;;;12.50;92.80;;;;;;5011444;28;20235;-79
2022/11/15 08:31:36;;;;;;;2.95;1.40;;;12.50;92.80;;;;;;5028914;28;20055;-80
2022/11/15 08:34:05;;;;;;;2.72;1.33;;;12.60;92.90;;;;;;4989034;28;20540;-80
2022/11/15 08:36:31;;;;;;;2.25;1.48;;;12.60;93.30;;;;;;5007697;28;20158;-79
2022/11/15 08:38:57;;;;;;;3.30;1.30;;;12.70;93.00;;;;;;5033203;28;20416;-81
2022/11/15 08:41:35;;;;;;;3.83;1.37;;;12.70;93.00;;;;;;4988514;28;20046;-79
2022/11/15 08:44:01;;;;;;;2.95;1.23;;;12.80;93.00;;;;;;5018975;28;20044;-79
2022/11/15 08:46:26;;;;;;;2.70;1.20;;;12.90;93.00;;;;;;5036905;28;20033;-80
2022/11/15 08:48:52;;;;;;;2.38;1.23;;;12.90;93.00;;;;;;4990243;28;20033;-80
2022/11/15 08:51:18;;;;;;;3.20;1.20;;;13.00;93.10;;;;;;5062105;28;20031;-80
2022/11/15 08:53:44;;;;;;;1.48;1.10;;;13.00;93.00;;;;;;5036005;28;20048;-79
2022/11/15 08:56:11;;;;;;;2.80;1.13;;;13.10;93.00;;;;;;5041418;28;20025;-80
2022/11/15 08:58:37;;;;;;;2.35;1.20;;;13.20;93.00;;;;;;5015641;28;20078;-80
2022/11/15 09:01:04;;;;;;;2.08;1.10;;;13.30;93.00;;;;;;5028476;28;20322;-80
2022/11/15 09:03:31;;;;;;;2.13;1.05;;;13.30;93.00;;;;;;5004235;28;20067;-80
2022/11/15 09:05:58;;;;;;;1.67;0.90;;;13.40;93.40;;;;;;5032279;28;20025;-79
2022/11/15 09:08:33;;;;;;;1.20;0.90;;;13.50;93.00;;;;;;5017297;28;20034;-80
2022/11/15 09:11:03;;;;;;;2.88;1.13;;;13.60;92.90;;;;;;5014971;28;20068;-80
2022/11/15 09:13:29;;;;;;;2.70;1.05;;;13.70;92.70;;;;;;5033190;28;20025;-80
2022/11/15 09:15:59;;;;;;;2.67;0.90;;;13.80;92.80;;;;;;5040807;28;20029;-79
2022/11/15 09:18:24;;;;;;;1.50;0.88;;;13.90;93.40;;;;;;4988095;28;20025;-80
2022/11/15 09:20:50;;;;;;;2.33;1.00;;;14.00;93.90;;;;;;5023521;28;20017;-80
2022/11/15 09:23:16;;;;;;;2.23;0.90;;;14.20;93.80;;;;;;5020129;28;20656;-80
2022/11/15 09:25:41;;;;;;;1.17;0.70;;;14.40;94.30;;;;;;5033329;28;20028;-80
2022/11/15 09:28:08;;;;;;;2.27;0.87;;;14.80;95.00;;;;;;5022728;28;20297;-80
2022/11/15 09:30:34;;;;;;;1.60;1.00;;;15.00;95.10;;;;;;5036450;28;20040;-81
2022/11/15 09:33:07;;;;;;;3.97;1.33;;;15.40;95.20;;;;;;5019753;28;20456;-79
2022/11/15 09:35:33;;;;;;;3.35;1.10;;;15.70;93.90;;;;;;4995802;28;20101;-79
2022/11/15 09:37:58;;;;;;;1.70;1.00;;;16.00;94.30;;;;;;5049692;28;20163;-80
2022/11/15 09:40:26;;;;;;;2.15;0.90;;;16.30;94.60;;;;;;5036101;28;20029;-80
2022/11/15 09:43:22;;;;;;;2.88;1.10;;;16.60;95.10;;;;;;5025296;28;20456;-80
2022/11/15 09:46:02;;;;;;;3.27;1.60;;;17.00;93.80;;;;;;5014029;28;20064;-80
2022/11/15 09:48:55;;;;;;;3.05;1.30;;;17.50;94.70;;;;;;5046959;28;20036;-80
2022/11/15 09:51:48;;;;;;;3.63;1.00;;;18.00;93.30;;;;;;5005349;28;20515;-81
2022/11/15 09:54:26;;;;;;;3.00;1.35;;;18.30;92.60;;;;;;5009094;28;20549;-81
2022/11/15 09:56:55;;;;;;;3.65;1.58;;;18.60;92.80;;;;;;5013389;28;20083;-80
2022/11/15 09:59:45;;;;;;;3.30;1.10;;;18.90;93.20;;;;;;5032019;28;20048;-80
2022/11/15 10:02:32;;;;;;;2.95;1.20;;;19.20;91.50;;;;;;5000175;28;20036;-80
2022/11/15 10:04:59;;;;;;;1.50;1.00;;;19.60;93.10;;;;;;5025021;28;20060;-80
2022/11/15 10:07:46;;;;;;;2.10;0.90;;;19.90;93.40;;;;;;5004652;28;20005;-79
2022/11/15 10:10:16;;;;;;;2.47;1.10;;;20.30;92.20;;;;;;5030974;28;20679;-80
2022/11/15 10:12:48;;;;;;;2.00;0.90;;;20.70;91.80;;;;;;5026065;28;20029;-80
2022/11/15 10:15:22;;;;;;;1.80;0.85;;;20.90;91.40;;;;;;5036067;28;20104;-79
2022/11/15 10:17:53;;;;;;;1.90;0.70;;;21.20;91.30;;;;;;5040310;28;20061;-80
2022/11/15 10:20:27;;;;;;;1.60;0.80;;;21.30;88.40;;;;;;5032244;28;20033;-81
2022/11/15 10:22:58;;;;;;;2.38;0.90;;;21.40;84.60;;;;;;5005234;28;20225;-81
2022/11/15 10:25:29;;;;;;;2.60;0.90;;;21.30;84.00;;;;;;5025706;28;20385;-81
2022/11/15 10:28:21;;;;;;;3.10;0.80;;;21.20;83.40;;;;;;5019623;28;20520;-80
2022/11/15 10:30:49;;;;;;;1.63;0.75;;;21.10;82.90;;;;;;5052701;28;20568;-81
2022/11/15 10:33:38;;;;;;;3.15;0.82;;;21.00;85.20;;;;;;5037004;28;20037;-80
2022/11/15 10:36:13;;;;;;;2.97;0.70;;;21.00;83.90;;;;;;5003273;28;20033;-79
2022/11/15 10:38:50;;;;;;;2.40;0.70;;;21.00;84.00;;;;;;4995945;28;20045;-79
2022/11/15 10:41:19;;;;;;;2.92;0.82;;;21.10;81.90;;;;;;5008167;28;20032;-79
2022/11/15 10:44:00;;;;;;;1.73;0.60;;;21.10;84.30;;;;;;5043589;28;20032;-80
2022/11/15 10:46:26;;;;;;;1.70;0.70;;;21.10;83.30;;;;;;5033002;28;20087;-80
2022/11/15 10:48:52;;;;;;;2.17;0.90;;;21.10;83.00;;;;;;5001058;28;20485;-81
2022/11/15 10:51:28;;;;;;;1.35;0.70;;;21.00;82.10;;;;;;5035322;28;20036;-80
2022/11/15 10:53:57;;;;;;;1.77;0.60;;;21.00;79.40;;;;;;5009389;28;20037;-80
2022/11/15 10:56:25;;;;;;;2.37;0.70;;;21.00;82.10;;;;;;5019294;28;20043;-80
2022/11/15 10:58:54;;;;;;;1.55;0.70;;;21.10;81.30;;;;;;5027706;28;20466;-80
2022/11/15 11:01:22;;;;;;;2.58;0.60;;;21.10;80.90;;;;;;5032000;28;20052;-79
2022/11/15 11:04:07;;;;;;;2.35;0.60;;;21.10;80.00;;;;;;5019826;28;20069;-80
2022/11/15 11:06:46;;;;;;;1.40;0.70;;;21.00;78.40;;;;;;5026796;28;20323;-80
2022/11/15 11:09:29;;;;;;;1.37;0.83;;;20.90;76.20;;;;;;5005626;28;20521;-80
2022/11/15 11:11:55;;;;;;;1.83;0.90;;;20.70;75.80;;;;;;5025086;28;20417;-79
2022/11/15 11:14:26;;;;;;;1.60;0.80;;;20.50;77.00;;;;;;5011609;28;20123;-80
2022/11/15 11:17:29;;;;;;;1.60;0.68;;;20.20;76.90;;;;;;5017350;28;20347;-80
2022/11/15 11:20:20;;;;;;;2.63;0.80;;;20.00;74.80;;;;;;4996808;28;20799;-80
2022/11/15 11:23:01;;;;;;;1.38;0.73;;;19.70;75.00;;;;;;5019403;28;20091;-80
2022/11/15 11:25:50;;;;;;;1.52;0.80;;;19.50;76.00;;;;;;5001338;28;20030;-80
2022/11/15 11:29:01;;;;;;;1.77;0.65;;;19.30;76.60;;;;;;4974378;28;20030;-81
2022/11/15 11:31:58;;;;;;;3.00;0.98;;;19.10;75.80;;;;;;5008184;28;20040;-79
2022/11/15 11:34:24;;;;;;;2.23;0.70;;;18.90;75.30;;;;;;5010664;28;20041;-80
2022/11/15 11:37:16;;;;;;;1.55;0.70;;;18.80;77.10;;;;;;5017903;28;20398;-81
2022/11/15 11:40:04;;;;;;;1.13;0.70;;;18.60;75.30;;;;;;5008557;28;20068;-79
2022/11/15 11:42:40;;;;;;;1.50;0.70;;;18.50;76.70;;;;;;5021887;28;20037;-81
2022/11/15 11:45:11;;;;;;;3.72;0.70;;;18.50;77.40;;;;;;5028162;28;20029;-81
2022/11/15 11:47:50;;;;;;;1.60;0.77;;;18.40;77.00;;;;;;5017404;28;20021;-80
2022/11/15 11:50:27;;;;;;;3.63;0.90;;;18.30;77.30;;;;;;5028082;28;20211;-81
2022/11/15 11:53:17;;;;;;;1.38;0.70;;;18.20;77.30;;;;;;5042776;28;20079;-79
2022/11/15 11:55:42;;;;;;;3.60;0.70;;;18.20;76.20;;;;;;5009034;28;20049;-80
2022/11/15 11:58:29;;;;;;;1.60;0.63;;;18.10;77.80;;;;;;5028967;28;20225;-80
2022/11/15 12:01:05;;;;;;;3.58;0.80;;;18.10;76.70;;;;;;5001792;28;20032;-80
2022/11/15 12:03:43;;;;;;;2.23;0.73;;;18.10;77.00;;;;;;5023915;28;20658;-80
2022/11/15 12:06:33;;;;;;;1.52;0.60;;;18.00;77.80;;;;;;5014524;28;20542;-80
2022/11/15 12:09:20;;;;;;;2.78;0.77;;;17.90;77.30;;;;;;5011654;28;20083;-79
2022/11/15 12:12:08;;;;;;;1.55;0.63;;;17.90;76.70;;;;;;5012317;28;20604;-79
2022/11/15 12:14:40;;;;;;;1.30;0.80;;;17.90;76.80;;;;;;5032406;28;20038;-80
2022/11/15 12:17:11;;;;;;;1.20;0.80;;;17.90;77.50;;;;;;5045068;28;20114;-80
2022/11/15 12:19:38;;;;;;;2.28;0.68;;;17.90;77.70;;;;;;5038993;28;20535;-80
2022/11/15 12:22:16;;;;;;;1.63;0.82;;;17.80;77.60;;;;;;5006305;28;20113;-79
2022/11/15 12:24:49;;;;;;;3.97;0.80;;;17.80;77.30;;;;;;5024068;28;20032;-80
2022/11/15 12:27:14;;;;;;;2.15;0.80;;;17.70;77.20;;;;;;4991710;28;22890;-80
2022/11/15 12:29:53;;;;;;;1.40;0.60;;;17.70;77.80;;;;;;5009717;28;20029;-79
2022/11/15 12:32:30;;;;;;;1.75;0.70;;;17.60;77.30;;;;;;5016004;28;20045;-80
2022/11/15 12:34:57;;;;;;;2.35;0.75;;;17.60;77.20;;;;;;5054427;28;20309;-80
2022/11/15 12:37:34;;;;;;;2.60;0.80;;;17.50;77.70;;;;;;5025774;28;20040;-81
2022/11/15 12:40:09;;;;;;;3.58;0.90;;;17.50;76.80;;;;;;5011895;28;20258;-80
2022/11/15 12:42:41;;;;;;;2.25;0.80;;;17.40;76.80;;;;;;4992215;28;20033;-79
2022/11/15 12:45:28;;;;;;;1.73;0.70;;;17.40;77.70;;;;;;5046692;28;20675;-80
2022/11/15 12:48:11;;;;;;;2.05;0.80;;;17.40;77.60;;;;;;5040471;28;20373;-81
2022/11/15 12:50:55;;;;;;;1.30;0.77;;;17.30;77.90;;;;;;5032458;28;20041;-79
2022/11/15 12:53:27;;;;;;;1.70;0.70;;;17.30;77.50;;;;;;5011954;28;20037;-79
2022/11/15 12:56:11;;;;;;;1.60;0.63;;;17.30;78.30;;;;;;5017228;28;20421;-81
2022/11/15 12:58:52;;;;;;;1.13;0.73;;;17.30;77.90;;;;;;5021994;28;20063;-80
2022/11/15 13:01:33;;;;;;;1.98;0.80;;;17.20;78.10;;;;;;5009610;28;20100;-80
2022/11/15 13:04:19;;;;;;;1.23;0.63;;;17.20;77.70;;;;;;4996969;28;20260;-80
2022/11/15 13:07:04;;;;;;;2.17;0.63;;;17.20;77.60;;;;;;5027997;28;20048;-80
2022/11/15 13:09:33;;;;;;;1.58;0.70;;;17.10;78.60;;;;;;5014319;28;20036;-79
2022/11/15 13:12:01;;;;;;;1.35;0.60;;;17.10;78.60;;;;;;5010964;28;20706;-80
2022/11/15 13:14:37;;;;;;;1.08;0.65;;;17.10;78.90;;;;;;5023811;28;20124;-80
2022/11/15 13:17:21;;;;;;;1.20;0.60;;;17.10;78.70;;;;;;5042129;28;20067;-80
2022/11/15 13:19:55;;;;;;;1.50;0.77;;;17.20;78.60;;;;;;5004264;28;20102;-80
2022/11/15 13:25:18;;;;;;;0.77;0.70;;;17.30;79.40;;;;;;5016725;28;20497;-80
2022/11/15 13:27:49;;;;;;;1.60;0.90;;;17.30;78.90;;;;;;5035354;28;20025;-80